createdAt,value
2019-03-30T00:01:05.726Z,10.90
2019-03-30T00:03:33.727Z,9.30
2019-03-30T00:06:01.418Z,11.07
2019-03-30T00:08:29.605Z,11.03
2019-03-30T00:10:58.225Z,10.40
2019-03-30T00:13:25.949Z,9.77
2019-03-30T00:15:53.720Z,11.13
2019-03-30T00:18:21.533Z,12.10
2019-03-30T00:20:49.700Z,11.77
2019-03-30T00:23:17.901Z,11.70
2019-03-30T00:25:45.677Z,9.03
2019-03-30T00:28:14.146Z,10.47
2019-03-30T00:30:41.935Z,9.67
2019-03-30T00:33:10.013Z,10.03
2019-03-30T00:35:37.961Z,10.97
2019-03-30T00:38:05.741Z,8.93
2019-03-30T00:40:33.592Z,10.03
2019-03-30T00:43:01.372Z,8.80
2019-03-30T00:45:29.287Z,11.40
2019-03-30T00:47:57.381Z,12.67
2019-03-30T00:50:25.689Z,10.67
2019-03-30T00:52:53.826Z,11.67
2019-03-30T00:55:21.638Z,13.63
2019-03-30T00:57:49.417Z,10.37
2019-03-30T01:00:17.250Z,12.13
2019-03-30T01:02:45.041Z,14.30
2019-03-30T01:05:12.841Z,11.03
2019-03-30T01:07:40.710Z,13.17
2019-03-30T01:10:08.664Z,11.67
2019-03-30T01:12:36.562Z,10.33
2019-03-30T01:15:05.916Z,11.93
2019-03-30T01:17:34.042Z,11.90
2019-03-30T01:20:03.089Z,13.40
2019-03-30T01:22:31.912Z,11.63
2019-03-30T01:24:59.818Z,12.87
2019-03-30T01:27:27.870Z,12.50
2019-03-30T01:29:55.679Z,13.20
2019-03-30T01:32:23.544Z,12.57
2019-03-30T01:34:51.349Z,12.43
2019-03-30T01:37:19.405Z,13.23
2019-03-30T01:39:47.265Z,14.67
2019-03-30T01:42:15.466Z,11.90
2019-03-30T01:44:43.309Z,14.27
2019-03-30T01:47:11.094Z,13.50
2019-03-30T01:49:39.248Z,12.30
2019-03-30T01:52:07.073Z,12.30
2019-03-30T01:54:35.297Z,12.00
2019-03-30T01:57:03.385Z,12.13
2019-03-30T01:59:31.194Z,12.47
2019-03-30T02:01:58.897Z,13.13
2019-03-30T02:04:26.609Z,16.73
2019-03-30T02:06:54.398Z,13.97
2019-03-30T02:09:22.583Z,12.37
2019-03-30T02:11:50.771Z,13.13
2019-03-30T02:14:18.668Z,13.53
2019-03-30T02:16:46.463Z,14.77
2019-03-30T02:19:14.288Z,13.03
2019-03-30T02:21:42.114Z,15.10
2019-03-30T02:24:09.930Z,11.77
2019-03-30T02:26:37.810Z,11.63
2019-03-30T02:29:05.938Z,10.67
2019-03-30T02:31:34.095Z,13.43
2019-03-30T02:34:01.888Z,15.33
2019-03-30T02:36:29.680Z,12.47
2019-03-30T02:38:57.806Z,15.20
2019-03-30T02:41:25.699Z,15.40
2019-03-30T02:43:53.590Z,13.77
2019-03-30T02:46:21.378Z,12.43
2019-03-30T02:48:49.265Z,14.77
2019-03-30T02:51:17.182Z,12.70
2019-03-30T02:53:45.059Z,12.33
2019-03-30T02:56:13.072Z,12.17
2019-03-30T02:58:40.970Z,14.33
2019-03-30T03:01:09.322Z,12.50
2019-03-30T03:03:37.116Z,13.57
2019-03-30T03:06:04.917Z,12.77
2019-03-30T03:08:32.710Z,13.63
2019-03-30T03:11:00.595Z,13.97
2019-03-30T03:13:28.571Z,13.33
2019-03-30T03:15:56.723Z,14.27
2019-03-30T03:18:24.816Z,13.33
2019-03-30T03:21:06.641Z,13.63
2019-03-30T03:23:22.469Z,13.03
2019-03-30T03:25:50.325Z,13.60
2019-03-30T03:28:18.202Z,12.67
2019-03-30T03:30:46.512Z,15.40
2019-03-30T03:33:14.348Z,14.70
2019-03-30T03:35:42.645Z,15.53
2019-03-30T03:38:10.664Z,13.67
2019-03-30T03:40:39.143Z,14.57
2019-03-30T03:43:07.496Z,17.03
2019-03-30T03:45:35.443Z,13.30
2019-03-30T03:48:03.149Z,13.67
2019-03-30T03:50:42.251Z,14.97
2019-03-30T03:53:12.440Z,14.30
2019-03-30T03:55:40.971Z,16.57
2019-03-30T03:58:10.130Z,14.87
2019-03-30T04:00:38.396Z,13.73
2019-03-30T04:03:09.199Z,15.33
2019-03-30T04:05:40.729Z,17.43
2019-03-30T04:08:11.430Z,16.87
2019-03-30T04:10:40.240Z,17.53
2019-03-30T04:13:10.644Z,18.53
2019-03-30T04:15:38.526Z,16.10
2019-03-30T04:18:07.474Z,18.10
2019-03-30T04:20:35.333Z,21.23
2019-03-30T04:23:03.123Z,18.70
2019-03-30T04:25:31.286Z,16.07
2019-03-30T04:27:59.453Z,16.03
2019-03-30T04:30:27.730Z,18.87
2019-03-30T04:32:55.603Z,20.47
2019-03-30T04:35:23.523Z,20.87
2019-03-30T04:37:51.830Z,17.87
2019-03-30T04:40:20.017Z,20.90
2019-03-30T04:42:47.919Z,22.37
2019-03-30T04:45:15.796Z,16.47
2019-03-30T04:47:43.669Z,19.93
2019-03-30T04:50:11.653Z,19.93
2019-03-30T04:52:39.505Z,17.63
2019-03-30T04:55:07.293Z,18.03
2019-03-30T04:57:35.496Z,18.23
2019-03-30T05:00:04.081Z,21.43
2019-03-30T05:02:31.868Z,20.83
2019-03-30T05:04:59.653Z,19.03
2019-03-30T05:07:27.605Z,20.47
2019-03-30T05:09:55.665Z,21.23
2019-03-30T05:12:23.581Z,19.30
2019-03-30T05:14:52.254Z,16.93
2019-03-30T05:17:20.085Z,19.80
2019-03-30T05:19:47.889Z,21.90
2019-03-30T05:22:16.928Z,19.33
2019-03-30T05:24:45.186Z,21.67
2019-03-30T05:27:13.580Z,19.53
2019-03-30T05:29:41.281Z,20.63
2019-03-30T05:32:09.077Z,21.37
2019-03-30T05:34:37.074Z,19.60
2019-03-30T05:37:05.641Z,20.23
2019-03-30T05:39:33.521Z,19.07
2019-03-30T05:42:01.370Z,20.67
2019-03-30T05:44:29.546Z,21.13
2019-03-30T05:46:57.787Z,18.33
2019-03-30T05:49:25.473Z,18.73
2019-03-30T05:51:54.437Z,17.67
2019-03-30T05:54:23.876Z,17.03
2019-03-30T05:56:52.110Z,18.93
2019-03-30T05:59:20.285Z,18.50
2019-03-30T06:01:48.934Z,18.33
2019-03-30T06:04:17.906Z,16.00
2019-03-30T06:06:46.092Z,15.80
2019-03-30T06:09:14.029Z,16.13
2019-03-30T06:11:41.871Z,17.43
2019-03-30T06:14:10.284Z,18.60
2019-03-30T06:16:40.056Z,18.17
2019-03-30T06:19:08.190Z,17.03
2019-03-30T06:21:36.653Z,18.23
2019-03-30T06:24:04.432Z,15.50
2019-03-30T06:26:33.376Z,14.47
2019-03-30T06:29:02.814Z,18.30
2019-03-30T06:31:30.933Z,16.90
2019-03-30T06:33:58.716Z,15.13
2019-03-30T06:36:26.552Z,16.77
2019-03-30T06:38:54.229Z,17.67
2019-03-30T06:41:22.113Z,19.80
2019-03-30T06:43:49.788Z,16.73
2019-03-30T06:46:17.677Z,17.83
2019-03-30T06:48:45.746Z,18.40
2019-03-30T06:51:13.610Z,16.93
2019-03-30T06:53:41.405Z,15.20
2019-03-30T06:56:09.278Z,15.33
2019-03-30T06:58:37.061Z,17.67
2019-03-30T07:01:05.366Z,18.03
2019-03-30T07:03:33.207Z,14.03
2019-03-30T07:06:01.724Z,12.80
2019-03-30T07:08:31.382Z,14.13
2019-03-30T07:11:01.460Z,17.40
2019-03-30T07:13:33.063Z,15.10
2019-03-30T07:16:02.953Z,13.93
2019-03-30T07:18:31.154Z,13.97
2019-03-30T07:20:58.945Z,15.10
2019-03-30T07:23:26.828Z,13.57
2019-03-30T07:25:54.601Z,13.90
2019-03-30T07:28:22.385Z,12.63
2019-03-30T07:30:50.173Z,14.53
2019-03-30T07:33:18.073Z,13.67
2019-03-30T07:35:45.865Z,13.13
2019-03-30T07:38:14.600Z,13.60
2019-03-30T07:40:42.465Z,13.73
2019-03-30T07:43:10.240Z,11.80
2019-03-30T07:45:38.037Z,13.57
2019-03-30T07:48:05.846Z,12.97
2019-03-30T07:50:34.078Z,14.30
2019-03-30T07:53:01.864Z,14.97
2019-03-30T07:55:29.657Z,15.43
2019-03-30T07:57:58.667Z,14.07
2019-03-30T08:00:30.867Z,12.03
2019-03-30T08:02:58.531Z,13.97
2019-03-30T08:05:26.603Z,12.47
2019-03-30T08:07:55.018Z,12.80
2019-03-30T08:10:22.908Z,11.90
2019-03-30T08:12:51.898Z,13.53
2019-03-30T08:15:19.774Z,10.80
2019-03-30T08:17:49.009Z,13.17
2019-03-30T08:20:16.797Z,11.80
2019-03-30T08:22:44.942Z,12.77
2019-03-30T08:25:13.039Z,12.13
2019-03-30T08:27:40.905Z,14.70
2019-03-30T08:30:09.853Z,11.73
2019-03-30T08:32:38.845Z,13.33
2019-03-30T08:35:07.177Z,11.90
2019-03-30T08:37:35.606Z,14.37
2019-03-30T08:40:03.713Z,12.97
2019-03-30T08:42:31.673Z,14.77
2019-03-30T08:44:59.839Z,12.40
2019-03-30T08:47:29.034Z,15.43
2019-03-30T08:49:57.097Z,12.87
2019-03-30T08:52:25.174Z,14.37
2019-03-30T08:54:53.264Z,12.90
2019-03-30T08:57:21.419Z,13.30
2019-03-30T08:59:49.200Z,13.00
2019-03-30T09:02:17.272Z,13.90
2019-03-30T09:04:45.321Z,13.00
2019-03-30T09:07:13.105Z,13.90
2019-03-30T09:09:42.692Z,12.53
2019-03-30T09:12:10.892Z,11.87
2019-03-30T09:14:38.789Z,10.83
2019-03-30T09:17:08.138Z,12.07
2019-03-30T09:19:36.309Z,10.93
2019-03-30T09:22:04.365Z,12.00
2019-03-30T09:24:32.474Z,12.67
2019-03-30T09:27:00.634Z,11.53
2019-03-30T09:29:28.441Z,14.43
2019-03-30T09:31:56.380Z,11.17
2019-03-30T09:34:26.650Z,11.03
2019-03-30T09:36:54.700Z,13.47
2019-03-30T09:39:22.926Z,14.30
2019-03-30T09:41:51.017Z,11.87
2019-03-30T09:44:18.691Z,12.40
2019-03-30T09:46:46.481Z,14.57
2019-03-30T09:49:14.262Z,9.53
2019-03-30T09:51:42.087Z,11.20
2019-03-30T09:54:23.052Z,10.93
2019-03-30T09:56:40.509Z,10.63
2019-03-30T09:59:08.298Z,11.57
2019-03-30T10:01:36.107Z,9.70
2019-03-30T10:04:03.975Z,8.53
2019-03-30T10:06:34.668Z,9.33
2019-03-30T10:09:01.552Z,11.47
2019-03-30T10:11:29.452Z,9.53
2019-03-30T10:13:58.432Z,13.57
2019-03-30T10:16:26.321Z,15.77
2019-03-30T10:18:54.101Z,12.50
2019-03-30T10:21:24.044Z,11.97
2019-03-30T10:23:51.918Z,11.07
2019-03-30T10:26:20.985Z,13.63
2019-03-30T10:28:48.674Z,10.53
2019-03-30T10:31:16.606Z,10.37
2019-03-30T10:33:44.488Z,10.80
2019-03-30T10:36:12.303Z,10.50
2019-03-30T10:38:41.396Z,10.27
2019-03-30T10:41:09.409Z,10.27
2019-03-30T10:43:37.486Z,9.10
2019-03-30T10:46:05.500Z,11.63
2019-03-30T10:48:33.616Z,10.77
2019-03-30T10:51:02.649Z,8.00
2019-03-30T10:53:30.549Z,7.87
2019-03-30T10:55:58.490Z,7.87
2019-03-30T10:58:26.293Z,7.50
2019-03-30T11:00:54.075Z,8.00
2019-03-30T11:03:22.995Z,8.83
2019-03-30T11:05:50.969Z,7.10
2019-03-30T11:08:19.067Z,6.93
2019-03-30T11:10:46.863Z,7.40
2019-03-30T11:13:14.785Z,9.80
2019-03-30T11:15:42.560Z,10.10
2019-03-30T11:18:10.397Z,7.97
2019-03-30T11:20:38.549Z,8.47
2019-03-30T11:23:06.333Z,7.73
2019-03-30T11:25:34.106Z,7.17
2019-03-30T11:28:01.897Z,10.50
2019-03-30T11:30:29.682Z,6.40
2019-03-30T11:32:57.453Z,6.43
2019-03-30T11:35:25.245Z,10.50
2019-03-30T11:37:53.207Z,6.20
2019-03-30T11:40:21.027Z,7.30
2019-03-30T11:42:48.970Z,5.50
2019-03-30T11:45:16.840Z,6.00
2019-03-30T11:47:44.678Z,6.10
2019-03-30T11:50:13.012Z,5.50
2019-03-30T11:52:47.929Z,8.33
2019-03-30T11:55:21.997Z,6.67
2019-03-30T11:57:45.938Z,5.93
2019-03-30T12:00:14.371Z,5.70
2019-03-30T12:02:42.171Z,6.10
2019-03-30T12:05:11.676Z,6.80
2019-03-30T12:07:39.549Z,5.77
2019-03-30T12:10:07.247Z,5.43
2019-03-30T12:12:37.323Z,8.03
2019-03-30T12:15:05.381Z,6.73
2019-03-30T12:17:33.298Z,6.97
2019-03-30T12:20:01.088Z,6.23
2019-03-30T12:22:28.977Z,5.73
2019-03-30T12:24:57.065Z,7.40
2019-03-30T12:27:25.218Z,6.17
2019-03-30T12:29:52.992Z,7.10
2019-03-30T12:32:20.879Z,7.37
2019-03-30T12:34:49.099Z,6.33
2019-03-30T12:37:16.974Z,8.67
2019-03-30T12:39:44.837Z,9.53
2019-03-30T12:42:12.933Z,4.97
2019-03-30T12:44:40.721Z,4.47
2019-03-30T12:47:10.403Z,4.30
2019-03-30T12:49:38.269Z,3.83
2019-03-30T12:52:06.150Z,5.17
2019-03-30T12:54:34.280Z,4.47
2019-03-30T12:57:02.062Z,4.67
2019-03-30T12:59:30.745Z,3.57
2019-03-30T13:01:58.924Z,4.53
2019-03-30T13:04:26.609Z,3.73
2019-03-30T13:06:54.850Z,4.70
2019-03-30T13:09:23.013Z,3.80
2019-03-30T13:11:51.102Z,4.20
2019-03-30T13:14:19.440Z,3.37
2019-03-30T13:16:49.154Z,3.67
2019-03-30T13:19:18.103Z,3.10
2019-03-30T13:21:52.891Z,3.33
2019-03-30T13:24:23.429Z,5.67
2019-03-30T13:26:53.125Z,4.87
2019-03-30T13:29:20.975Z,4.90
2019-03-30T13:31:49.443Z,7.07
2019-03-30T13:34:17.353Z,5.57
2019-03-30T13:36:45.254Z,6.23
2019-03-30T13:39:13.046Z,5.47
2019-03-30T13:41:42.325Z,7.57
2019-03-30T13:44:10.123Z,4.90
2019-03-30T13:46:38.365Z,4.07
2019-03-30T13:49:06.527Z,3.97
2019-03-30T13:51:37.570Z,4.50
2019-03-30T13:54:05.560Z,5.03
2019-03-30T13:56:33.320Z,4.43
2019-03-30T13:59:01.119Z,4.33
2019-03-30T14:01:28.973Z,4.60
2019-03-30T14:03:56.775Z,3.90
2019-03-30T14:06:24.553Z,8.60
2019-03-30T14:08:54.150Z,3.80
2019-03-30T14:11:31.958Z,4.37
2019-03-30T14:14:00.143Z,6.73
2019-03-30T14:16:28.014Z,4.40
2019-03-30T14:18:56.197Z,8.33
2019-03-30T14:21:24.013Z,5.97
2019-03-30T14:23:51.698Z,5.23
2019-03-30T14:26:30.695Z,4.77
2019-03-30T14:28:50.205Z,8.07
2019-03-30T14:31:17.989Z,4.47
2019-03-30T14:33:46.047Z,7.50
2019-03-30T14:36:14.325Z,5.60
2019-03-30T14:38:42.498Z,4.47
2019-03-30T14:41:10.272Z,4.33
2019-03-30T14:43:38.525Z,7.93
2019-03-30T14:46:06.497Z,7.60
2019-03-30T14:48:34.981Z,5.70
2019-03-30T14:51:04.620Z,6.23
2019-03-30T14:53:32.492Z,7.83
2019-03-30T14:56:00.509Z,6.03
2019-03-30T14:58:29.630Z,4.10
2019-03-30T15:00:57.892Z,6.17
2019-03-30T15:03:25.669Z,5.93
2019-03-30T15:05:53.425Z,5.77
2019-03-30T15:08:21.908Z,5.53
2019-03-30T15:10:49.973Z,5.10
2019-03-30T15:13:17.745Z,5.50
2019-03-30T15:15:45.528Z,4.63
2019-03-30T15:18:13.308Z,6.40
2019-03-30T15:20:41.585Z,3.93
2019-03-30T15:23:09.716Z,5.37
2019-03-30T15:25:37.597Z,4.10
2019-03-30T15:28:05.394Z,4.40
2019-03-30T15:30:33.182Z,3.73
2019-03-30T15:33:03.452Z,5.70
2019-03-30T15:35:31.161Z,4.33
2019-03-30T15:37:59.265Z,6.03
2019-03-30T15:40:27.145Z,4.27
2019-03-30T15:42:54.916Z,5.83
2019-03-30T15:45:22.717Z,5.10
2019-03-30T15:47:50.494Z,3.83
2019-03-30T15:50:18.309Z,4.80
2019-03-30T15:52:46.104Z,4.10
2019-03-30T15:55:14.233Z,3.73
2019-03-30T15:57:42.018Z,4.83
2019-03-30T16:00:12.425Z,6.57
2019-03-30T16:02:40.209Z,4.70
2019-03-30T16:05:08.208Z,5.87
2019-03-30T16:07:35.893Z,5.23
2019-03-30T16:10:04.805Z,4.13
2019-03-30T16:12:32.617Z,5.40
2019-03-30T16:15:00.524Z,4.20
2019-03-30T16:17:28.717Z,3.60
2019-03-30T16:19:56.497Z,6.00
2019-03-30T16:22:24.290Z,4.87
2019-03-30T16:24:52.489Z,5.73
2019-03-30T16:27:28.733Z,4.80
2019-03-30T16:29:50.080Z,7.10
2019-03-30T16:32:17.866Z,5.23
2019-03-30T16:34:45.749Z,4.10
2019-03-30T16:37:13.552Z,5.20
2019-03-30T16:39:42.590Z,4.33
2019-03-30T16:42:10.780Z,6.77
2019-03-30T16:44:38.660Z,3.80
2019-03-30T16:47:06.797Z,4.50
2019-03-30T16:49:34.590Z,8.70
2019-03-30T16:52:02.421Z,5.87
2019-03-30T16:54:30.501Z,5.40
2019-03-30T16:56:58.404Z,3.63
2019-03-30T16:59:26.185Z,6.03
2019-03-30T17:01:54.301Z,8.33
2019-03-30T17:04:22.087Z,8.97
2019-03-30T17:06:50.230Z,9.03
2019-03-30T17:09:19.116Z,7.47
2019-03-30T17:11:46.980Z,10.83
2019-03-30T17:14:14.775Z,3.90
2019-03-30T17:16:42.556Z,4.07
2019-03-30T17:19:10.730Z,3.83
2019-03-30T17:21:38.501Z,4.00
2019-03-30T17:24:06.267Z,3.77
2019-03-30T17:26:34.145Z,4.60
2019-03-30T17:29:01.931Z,3.57
2019-03-30T17:31:29.874Z,3.60
2019-03-30T17:33:57.667Z,3.87
2019-03-30T17:36:26.196Z,3.60
2019-03-30T17:38:53.979Z,2.33
2019-03-30T17:41:22.417Z,3.27
2019-03-30T17:43:50.712Z,3.20
2019-03-30T17:46:18.767Z,3.40
2019-03-30T17:48:47.242Z,4.03
2019-03-30T17:51:15.024Z,5.43
2019-03-30T17:53:43.170Z,4.93
2019-03-30T17:56:10.949Z,3.83
2019-03-30T17:58:38.908Z,4.17
2019-03-30T18:01:06.987Z,4.03
2019-03-30T18:03:34.766Z,6.47
2019-03-30T18:06:02.649Z,5.80
2019-03-30T18:08:30.441Z,7.27
2019-03-30T18:10:58.553Z,6.17
2019-03-30T18:13:26.365Z,6.20
2019-03-30T18:15:54.141Z,8.73
2019-03-30T18:18:21.937Z,9.67
2019-03-30T18:20:49.797Z,9.43
2019-03-30T18:23:17.586Z,9.17
2019-03-30T18:25:45.369Z,8.33
2019-03-30T18:28:26.179Z,7.87
2019-03-30T18:30:43.122Z,6.30
2019-03-30T18:33:10.908Z,9.50
2019-03-30T18:35:39.886Z,7.20
2019-03-30T18:38:08.157Z,7.27
2019-03-30T18:40:36.349Z,7.63
2019-03-30T18:43:04.161Z,7.30
2019-03-30T18:45:32.046Z,7.47
2019-03-30T18:48:10.913Z,5.90
2019-03-30T18:50:40.014Z,7.40
2019-03-30T18:53:08.192Z,5.43
2019-03-30T18:55:36.325Z,5.53
2019-03-30T18:58:04.124Z,4.73
2019-03-30T19:00:33.137Z,5.40
2019-03-30T19:03:01.357Z,6.87
2019-03-30T19:05:29.426Z,7.53
2019-03-30T19:07:57.213Z,9.43
2019-03-30T19:10:24.981Z,9.93
2019-03-30T19:12:53.134Z,10.80
2019-03-30T19:15:20.913Z,11.17
2019-03-30T19:17:48.791Z,7.77
2019-03-30T19:20:16.568Z,8.30
2019-03-30T19:22:44.357Z,9.23
2019-03-30T19:25:12.486Z,13.53
2019-03-30T19:27:40.657Z,15.77
2019-03-30T19:30:10.902Z,13.03
2019-03-30T19:32:39.159Z,12.60
2019-03-30T19:35:07.154Z,10.90
2019-03-30T19:37:35.061Z,9.40
2019-03-30T19:40:02.986Z,9.83
2019-03-30T19:42:30.756Z,7.43
2019-03-30T19:44:58.572Z,9.07
2019-03-30T19:47:26.357Z,10.43
2019-03-30T19:49:54.148Z,8.63
2019-03-30T19:52:22.037Z,6.27
2019-03-30T19:54:50.041Z,5.33
2019-03-30T19:57:18.610Z,5.03
2019-03-30T19:59:46.419Z,6.60
2019-03-30T20:02:14.298Z,5.60
2019-03-30T20:04:42.106Z,6.50
2019-03-30T20:07:09.797Z,8.50
2019-03-30T20:09:37.658Z,9.70
2019-03-30T20:12:05.484Z,10.03
2019-03-30T20:14:33.441Z,9.70
2019-03-30T20:17:01.235Z,8.73
2019-03-30T20:19:29.417Z,10.13
2019-03-30T20:21:57.556Z,12.00
2019-03-30T20:24:26.710Z,18.23
2019-03-30T20:26:54.850Z,39.90
2019-03-30T20:29:25.549Z,26.63
2019-03-30T20:31:52.642Z,23.97
2019-03-30T20:34:20.637Z,19.57
2019-03-30T20:36:48.420Z,19.07
2019-03-30T20:39:16.539Z,16.90
2019-03-30T20:41:44.817Z,19.27
2019-03-30T20:44:12.637Z,16.27
2019-03-30T20:46:43.530Z,16.57
2019-03-30T20:49:10.229Z,15.70
2019-03-30T20:51:38.022Z,14.83
2019-03-30T20:54:05.864Z,20.57
2019-03-30T20:56:33.959Z,14.60
2019-03-30T20:59:01.845Z,11.83
2019-03-30T21:01:29.693Z,13.63
2019-03-30T21:03:57.582Z,10.97
2019-03-30T21:06:25.727Z,9.23
2019-03-30T21:08:53.591Z,11.67
2019-03-30T21:11:21.402Z,11.20
2019-03-30T21:13:49.190Z,8.23
2019-03-30T21:16:17.036Z,8.00
2019-03-30T21:18:45.290Z,10.60
2019-03-30T21:21:13.137Z,8.67
2019-03-30T21:23:40.910Z,8.53
2019-03-30T21:26:08.773Z,6.63
2019-03-30T21:28:36.934Z,7.77
2019-03-30T21:31:04.728Z,8.10
2019-03-30T21:33:32.418Z,5.93
2019-03-30T21:36:00.209Z,7.03
2019-03-30T21:38:28.358Z,8.60
2019-03-30T21:40:56.573Z,7.23
2019-03-30T21:43:24.352Z,6.83
2019-03-30T21:45:53.741Z,7.40
2019-03-30T21:48:21.807Z,7.50
2019-03-30T21:50:49.656Z,8.27
2019-03-30T21:53:17.437Z,6.93
2019-03-30T21:55:46.177Z,6.87
2019-03-30T21:58:13.966Z,6.73
2019-03-30T22:00:42.071Z,7.50
2019-03-30T22:03:10.539Z,7.00
2019-03-30T22:05:39.202Z,5.90
2019-03-30T22:08:07.281Z,7.67
2019-03-30T22:10:35.100Z,5.93
2019-03-30T22:13:03.181Z,7.37
2019-03-30T22:15:30.973Z,8.77
2019-03-30T22:17:58.789Z,6.57
2019-03-30T22:20:26.597Z,6.73
2019-03-30T22:22:54.698Z,6.83
2019-03-30T22:25:22.563Z,6.07
2019-03-30T22:27:50.442Z,5.57
2019-03-30T22:30:24.604Z,6.43
2019-03-30T22:32:47.946Z,5.90
2019-03-30T22:35:15.792Z,8.50
2019-03-30T22:37:43.569Z,8.90
2019-03-30T22:40:11.705Z,7.27
2019-03-30T22:42:39.489Z,7.47
2019-03-30T22:45:07.304Z,7.63
2019-03-30T22:47:34.982Z,7.17
2019-03-30T22:50:02.988Z,8.13
2019-03-30T22:52:30.777Z,7.00
2019-03-30T22:54:58.914Z,6.63
2019-03-30T22:57:26.701Z,9.77
2019-03-30T22:59:55.486Z,6.43
2019-03-30T23:02:23.291Z,7.00
2019-03-30T23:04:51.417Z,8.87
2019-03-30T23:07:19.230Z,6.90
2019-03-30T23:09:47.013Z,7.57
2019-03-30T23:12:14.869Z,9.50
2019-03-30T23:14:42.645Z,8.07
2019-03-30T23:17:10.483Z,7.47
2019-03-30T23:19:38.265Z,7.83
2019-03-30T23:22:06.052Z,7.20
2019-03-30T23:24:33.857Z,9.77
2019-03-30T23:27:01.645Z,7.40
2019-03-30T23:29:30.177Z,8.47
2019-03-30T23:31:57.989Z,9.13
2019-03-30T23:34:25.893Z,7.43
2019-03-30T23:36:53.829Z,9.70
2019-03-30T23:39:21.930Z,8.30
2019-03-30T23:41:49.890Z,7.33
2019-03-30T23:44:17.775Z,7.93
2019-03-30T23:46:45.627Z,8.30
2019-03-30T23:49:13.416Z,8.57
2019-03-30T23:51:41.579Z,7.87
2019-03-30T23:54:13.405Z,7.17
2019-03-30T23:56:41.270Z,7.77
2019-03-30T23:59:09.050Z,8.00
